Address 0x60841563bd90a421aa87be731be638412dd40e91 2

Txn Hash Method
Block
From
To
Value [Txn Fee]
0xb217f08453fdf83584b339b3d7013708b503c7582d32ab3db5700f3ad21b96a7Transfer220536522021-11-29 6:10:517 days 6 hrs ago0x60841563bd90a421aa87be731be638412dd40e91OUT0x4793cae634a0279d328b1cf7037e9f062ff6ad102 MATIC0.000149839141
0xc303cbb6f0a759d97720e568324c9feeb55291accf41c4d8c640827719bb790a0xb1636f39218623692021-11-24 11:09:5612 days 1 hr ago0x60841563bd90a421aa87be731be638412dd40e91OUT 0x725e9f1044f1cdac5b193e345c7f2c6290a18cdc0 MATIC0.04111356
0x57f6878121df314d15cae598cc1d909fc3a38d553e4df019e3d58b84f7bb8db50x05635bc4218623212021-11-24 11:08:1612 days 1 hr ago0x60841563bd90a421aa87be731be638412dd40e91OUT 0x725e9f1044f1cdac5b193e345c7f2c6290a18cdc0 MATIC0.03434226
0xb8cf5b52a17495eed7c3b5acc8beaea1fb1a0a28d4cfa970ff3fa462597e78620x1325188f209476042021-11-02 8:32:2834 days 3 hrs ago0x60841563bd90a421aa87be731be638412dd40e91OUT 0x725e9f1044f1cdac5b193e345c7f2c6290a18cdc0 MATIC0.003051954
0xd48ad78feddda77d6882b29da7a9aa5e737f022e843d47254b2bbec45143c1b10x05635bc4209475782021-11-02 8:31:3234 days 3 hrs ago0x60841563bd90a421aa87be731be638412dd40e91OUT 0x725e9f1044f1cdac5b193e345c7f2c6290a18cdc0 MATIC0.001717149
0x9abb088123c81bcbb90b915f2ef70cdafbd13ede15dca803273b09d3b14b7376Add Liquidity209453412021-11-02 7:14:3834 days 5 hrs ago0x60841563bd90a421aa87be731be638412dd40e91OUT 0x1b02da8cb0d097eb8d57a175b88c7d8b479975060 MATIC0.0342322992
0x89868e87493fae844a65bf37c4d797e7759cf71f4bdd26cdbace248d36dad298Approve209453092021-11-02 7:13:3434 days 5 hrs ago0x60841563bd90a421aa87be731be638412dd40e91OUT 0xaa3ae75e8118fc1b6debc99bc52db28f7403a54c0 MATIC0.0009741456
0xb7e42c7eca3759dcfb660cc7a217b96b2f57c79c1913a003826bb10d73afe8230xb1636f39209106262021-11-01 11:21:2035 days 1 hr ago0x60841563bd90a421aa87be731be638412dd40e91OUT 0x725e9f1044f1cdac5b193e345c7f2c6290a18cdc0 MATIC0.002057085
0xe6c760c6e965bdbf64f7e46b941bff88ad40bf03f55f9465ad9730efb803ba2a0x1325188f209097792021-11-01 10:52:1435 days 1 hr ago0x60841563bd90a421aa87be731be638412dd40e91OUT 0x725e9f1044f1cdac5b193e345c7f2c6290a18cdc0 MATIC0.002917881
0x29514de9e59a7c94acbc21f0a9787f846dee73679d131c16398b49d268c0118f0x05635bc4209097652021-11-01 10:51:4635 days 1 hr ago0x60841563bd90a421aa87be731be638412dd40e91OUT 0x725e9f1044f1cdac5b193e345c7f2c6290a18cdc0 MATIC0.001779462
0x5107e41b2226d3e602a37bdb26fff207c40e3e5009857c9392981f690c41e20bApprove209097612021-11-01 10:51:3835 days 1 hr ago0x60841563bd90a421aa87be731be638412dd40e91OUT 0xc350457316999eca45698f124d07eb8efda93b9d0 MATIC0.000202017
0xbd301f0a97f43dbe735c955efcf445866e57da1c1604fbaeae2711ca729e5ba80x1325188f209097492021-11-01 10:51:1035 days 1 hr ago0x60841563bd90a421aa87be731be638412dd40e91OUT 0x725e9f1044f1cdac5b193e345c7f2c6290a18cdc0 MATIC0.003103254
0xb97f77ca68e499735a667f23ee19fb23245a5829113c9707aa7d25312ce8776f0x05635bc4209097312021-11-01 10:50:3435 days 1 hr ago0x60841563bd90a421aa87be731be638412dd40e91OUT 0x725e9f1044f1cdac5b193e345c7f2c6290a18cdc0 MATIC0.001518249
0xc59aed7e2e5d8f663850e1abb577fb44b4f2049e49d10e8b004ea07888513d850x05635bc4209096782021-11-01 10:48:4435 days 1 hr ago0x60841563bd90a421aa87be731be638412dd40e91OUT 0x725e9f1044f1cdac5b193e345c7f2c6290a18cdc0 MATIC0.001717149
0x6e0a73fc207e6675b9561713515d880625ddc03315b226e9bd2ff337c468a4e00x1325188f209096372021-11-01 10:47:2235 days 1 hr ago0x60841563bd90a421aa87be731be638412dd40e91OUT 0x725e9f1044f1cdac5b193e345c7f2c6290a18cdc0 MATIC0.003051954
0x61d35ce4d2348eeafb88e4b07dedb2a0ded936193af108035f53c17e656b95420x05635bc4209095702021-11-01 10:45:0435 days 1 hr ago0x60841563bd90a421aa87be731be638412dd40e91OUT 0x725e9f1044f1cdac5b193e345c7f2c6290a18cdc0 MATIC0.001717149
0xf79b01c7a2bf04304b2f605ecc31c36e720232b8cc69570c61bd9bfd12f30b7d0x1325188f209095552021-11-01 10:44:3035 days 1 hr ago0x60841563bd90a421aa87be731be638412dd40e91OUT 0x725e9f1044f1cdac5b193e345c7f2c6290a18cdc0 MATIC0.003051918
0x63833c27ad9b890843fc72852b939ce829c8526290d7cc0e78313569c712f5960x1325188f209095282021-11-01 10:43:3635 days 1 hr ago0x60841563bd90a421aa87be731be638412dd40e91OUT 0x725e9f1044f1cdac5b193e345c7f2c6290a18cdc0 MATIC0.002917917
0xfbdee48c6050547713363369494695b10b0cdfec6c76d0cf46ae35aa3edb214c0x1325188f209095162021-11-01 10:43:1235 days 1 hr ago0x60841563bd90a421aa87be731be638412dd40e91OUT 0x725e9f1044f1cdac5b193e345c7f2c6290a18cdc0 MATIC0.002859066
0xdcafc254efdb76b041621be019a0c241a5a6bacd6374e46ad998d6e9497b00d70x1325188f209095042021-11-01 10:42:4835 days 1 hr ago0x60841563bd90a421aa87be731be638412dd40e91OUT 0x725e9f1044f1cdac5b193e345c7f2c6290a18cdc0 MATIC0.002777526
0xdbd386d9a949d8376b1524eb3c245af5afe80a0defe36348902c177812e25798Trade207805242021-10-29 8:29:5238 days 3 hrs ago0x60841563bd90a421aa87be731be638412dd40e91OUT 0x725e9f1044f1cdac5b193e345c7f2c6290a18cdc0 MATIC0.001929801
0xa59bd06510cddfdfd0966c7ef5df9b72e2fe95099a62820eb648bac2cad4af180x612cd04b207804722021-10-29 8:28:0438 days 3 hrs ago0x60841563bd90a421aa87be731be638412dd40e91OUT 0x725e9f1044f1cdac5b193e345c7f2c6290a18cdc0 MATIC0.00260748
0xb23a6cda3f26cf310ef7ce25c04d9945260fa461908c45629bc5768a3eef4563Trade207797762021-10-29 8:04:1238 days 4 hrs ago0x60841563bd90a421aa87be731be638412dd40e91OUT 0x725e9f1044f1cdac5b193e345c7f2c6290a18cdc0 MATIC0.002083413
0x998e55cb83e0d4d387181ccc2b210d3db82267e8323123de8d67988442252ccfTrade207409592021-10-28 9:49:5039 days 2 hrs ago0x60841563bd90a421aa87be731be638412dd40e91OUT 0x725e9f1044f1cdac5b193e345c7f2c6290a18cdc0 MATIC0.001915995
0x72f93ae64eeb94eac2459d228d37e7088cd422c340a6b13bc8704a4f64ea5d0dTrade207409322021-10-28 9:48:5639 days 2 hrs ago0x60841563bd90a421aa87be731be638412dd40e91OUT 0x725e9f1044f1cdac5b193e345c7f2c6290a18cdc0 MATIC0.001694016
[ Download CSV Export 
Latest 3 internal transactions
Parent Txn Hash Block From To Value
0xdcafc254efdb76b041621be019a0c241a5a6bacd6374e46ad998d6e9497b00d7209095042021-11-01 10:42:4835 days 1 hr ago 0x725e9f1044f1cdac5b193e345c7f2c6290a18cdc0x60841563bd90a421aa87be731be638412dd40e911 MATIC
0xa817dfe0e14311ee3a4fd2e1eea66462fa492f14c2e1acc9d0fd9b83f5dcb529204856222021-10-22 7:19:4445 days 5 hrs ago 0x725e9f1044f1cdac5b193e345c7f2c6290a18cdc0x60841563bd90a421aa87be731be638412dd40e912.0011 MATIC
0xbbc053f7f25abd30e4523cec27c3283e58754880fe85e1aa0d04404d61c99da0192370652021-09-22 4:01:1875 days 8 hrs ago 0x725e9f1044f1cdac5b193e345c7f2c6290a18cdc0x60841563bd90a421aa87be731be638412dd40e911 MATIC
[ Download CSV Export 
Loading

Contract Name:
0 MATIC

Compiler Version
0

Optimization Enabled:
0 MATIC

Other Settings:
-NA-
Block Transaction Gas Used Reward
Age Block Fee Address BC Fee Address Voting Power Jailed Incoming
Block Uncle Number Difficulty Gas Used Reward
Loading